Time;durP1;ratioP1;P1;durP2;ratioP2;P2;SDS_P1;SDS_P2;PMS_P1;PMS_P2;Temp;Humidity;BMP_temperature;BMP_pressure;BME280_temperature;BME280_humidity;BME280_pressure;Samples;Min_cycle;Max_cycle;Signal;HPM_P1;HPM_P2
2021/12/07 00:00:34;;;;;;;;;;;;;;;;;;2098373;28;20280;-57
2021/12/07 00:01:35;;;;;;;;;;;;;;;;;;2097588;28;20344;-58
2021/12/07 00:02:36;;;;;;;;;;;;;;;;;;2101274;28;19936;-57
2021/12/07 00:03:37;;;;;;;;;;;;;;;;;;2106978;28;19935;-43
2021/12/07 00:04:39;;;;;;;;;;;;;;;;;;2102996;28;20377;-58
2021/12/07 00:05:40;;;;;;;;;;;;;;;;;;2099146;28;19924;-42
2021/12/07 00:06:41;;;;;;;;;;;;;;;;;;2098219;28;20399;-43
2021/12/07 00:07:43;;;;;;;;;;;;;;;;;;2097130;28;19990;-43
2021/12/07 00:08:44;;;;;;;;;;;;;;;;;;2103533;28;19993;-57
2021/12/07 00:09:49;;;;;;;;;;;;;;;;;;2106706;28;20380;-57
2021/12/07 00:10:51;;;;;;;;;;;;;;;;;;2100356;28;19931;-57
2021/12/07 00:11:52;;;;;;;;;;;;;;;;;;2104786;28;19997;-58
2021/12/07 00:12:53;;;;;;;;;;;;;;;;;;2106844;28;20280;-57
2021/12/07 00:13:56;;;;;;;;;;;;;;;;;;2100537;28;19924;-57
2021/12/07 00:15:01;;;;;;;;;;;;;;;;;;2097985;28;20379;-57
2021/12/07 00:16:02;;;;;;;;;;;;;;;;;;2098201;28;19928;-58
2021/12/07 00:17:03;;;;;;;;;;;;;;;;;;2097359;28;21164;-58
2021/12/07 00:18:04;;;;;;;;;;;;;;;;;;2106497;28;20435;-57
2021/12/07 00:19:05;;;;;;;;;;;;;;;;;;2106502;28;20265;-57
2021/12/07 00:20:06;;;;;;;;;;;;;;;;;;2098199;28;19933;-57
2021/12/07 00:21:07;;;;;;;;;;;;;;;;;;2098152;28;19935;-57
2021/12/07 00:22:08;;;;;;;;;;;;;;;;;;2097596;28;19925;-58
2021/12/07 00:23:13;;;;;;;;;;;;;;;;;;2098447;28;20071;-57
2021/12/07 00:24:14;;;;;;;;;;;;;;;;;;2098083;28;20327;-57
2021/12/07 00:25:14;;;;;;;;;;;;;;;;;;2097527;28;20185;-58
2021/12/07 00:26:15;;;;;;;;;;;;;;;;;;2098907;28;20370;-57
2021/12/07 00:27:16;;;;;;;;;;;;;;;;;;2098045;28;19924;-57
2021/12/07 00:28:20;;;;;;;;;;;;;;;;;;2097462;28;19924;-57
2021/12/07 00:29:20;;;;;;;;;;;;;;;;;;2096195;28;19958;-43
2021/12/07 00:30:26;;;;;;;;;;;;;;;;;;2098063;28;20380;-43
2021/12/07 00:31:31;;;;;;;;;;;;;;;;;;2096918;28;19947;-43
2021/12/07 00:32:35;;;;;;;;;;;;;;;;;;2098716;28;19925;-43
2021/12/07 00:33:43;;;;;;;;;;;;;;;;;;2098063;28;19928;-43
2021/12/07 00:34:58;;;;;;;;;;;;;;;;;;2097067;28;19982;-57
2021/12/07 00:35:59;;;;;;;;;;;;;;;;;;2098055;28;20333;-57
2021/12/07 00:37:00;;;;;;;;;;;;;;;;;;2097704;28;19973;-57
2021/12/07 00:38:02;;;;;;;;;;;;;;;;;;2099666;28;19970;-57
2021/12/07 00:39:03;;;;;;;;;;;;;;;;;;2098429;28;19931;-43
2021/12/07 00:40:04;;;;;;;;;;;;;;;;;;2097375;28;20292;-43
2021/12/07 00:41:05;;;;;;;;;;;;;;;;;;2098473;28;19928;-43
2021/12/07 00:42:06;;;;;;;;;;;;;;;;;;2097978;28;19932;-43
2021/12/07 00:43:07;;;;;;;;;;;;;;;;;;2097479;28;20381;-43
2021/12/07 00:44:08;;;;;;;;;;;;;;;;;;2099647;28;20404;-43
2021/12/07 00:45:09;;;;;;;;;;;;;;;;;;2098085;28;19924;-43
2021/12/07 00:46:11;;;;;;;;;;;;;;;;;;2097313;28;19990;-42
2021/12/07 00:47:12;;;;;;;;;;;;;;;;;;2099208;28;19947;-57
2021/12/07 00:48:13;;;;;;;;;;;;;;;;;;2097957;28;19931;-57
2021/12/07 00:49:14;;;;;;;;;;;;;;;;;;2097071;28;19928;-57
2021/12/07 00:50:15;;;;;;;;;;;;;;;;;;2098719;28;19929;-57
2021/12/07 00:51:16;;;;;;;;;;;;;;;;;;2097901;28;19925;-57
2021/12/07 00:52:17;;;;;;;;;;;;;;;;;;2096809;28;19925;-57
2021/12/07 00:53:18;;;;;;;;;;;;;;;;;;2098764;28;19924;-57
2021/12/07 00:54:19;;;;;;;;;;;;;;;;;;2098131;28;19925;-43
2021/12/07 00:55:20;;;;;;;;;;;;;;;;;;2097224;28;19924;-42
2021/12/07 00:56:21;;;;;;;;;;;;;;;;;;2098804;28;19932;-57
2021/12/07 00:57:24;;;;;;;;;;;;;;;;;;2097889;28;19931;-57
2021/12/07 00:58:26;;;;;;;;;;;;;;;;;;2097976;28;19949;-57
2021/12/07 00:59:26;;;;;;;;;;;;;;;;;;2097747;28;19928;-57
2021/12/07 01:00:27;;;;;;;;;;;;;;;;;;2097914;28;19924;-57
2021/12/07 01:01:28;;;;;;;;;;;;;;;;;;2097652;28;19948;-58
2021/12/07 01:02:29;;;;;;;;;;;;;;;;;;2106024;28;19924;-58
2021/12/07 01:03:30;;;;;;;;;;;;;;;;;;2106297;28;19975;-58
2021/12/07 01:04:31;;;;;;;;;;;;;;;;;;2098387;28;19932;-58
2021/12/07 01:05:35;;;;;;;;;;;;;;;;;;2097830;28;20372;-57
2021/12/07 01:06:46;;;;;;;;;;;;;;;;;;2097953;28;20027;-58
2021/12/07 01:07:56;;;;;;;;;;;;;;;;;;2099218;28;19924;-42
2021/12/07 01:09:09;;;;;;;;;;;;;;;;;;2106352;28;20036;-43
2021/12/07 01:25:03;;;;;;;;;;;;;;;;;;2060268;28;19932;-43
2021/12/07 01:26:04;;;;;;;;;;;;;;;;;;2097759;28;19968;-43
2021/12/07 01:27:05;;;;;;;;;;;;;;;;;;2097769;28;19947;-42
2021/12/07 01:28:13;;;;;;;;;;;;;;;;;;2096756;28;19976;-43
2021/12/07 01:29:16;;;;;;;;;;;;;;;;;;2096364;28;20418;-43
2021/12/07 01:30:20;;;;;;;;;;;;;;;;;;2097294;28;19929;-43
2021/12/07 01:31:27;;;;;;;;;;;;;;;;;;2100840;28;20372;-43
2021/12/07 01:34:04;;;;;;;;;;;;;;;;;;2097882;28;19970;-43
2021/12/07 01:35:33;;;;;;;;;;;;;;;;;;2097787;28;20113;-43
2021/12/07 01:37:03;;;;;;;;;;;;;;;;;;2097741;28;20285;-43
2021/12/07 01:38:23;;;;;;;;;;;;;;;;;;2091056;28;20070;-43
2021/12/07 01:39:47;;;;;;;;;;;;;;;;;;2094527;28;19982;-43
2021/12/07 01:41:05;;;;;;;;;;;;;;;;;;2090955;28;20051;-43
2021/12/07 01:43:51;;;;;;;;;;;;;;;;;;2099401;28;20008;-43
2021/12/07 01:45:16;;;;;;;;;;;;;;;;;;2099352;28;20011;-58
2021/12/07 01:46:45;;;;;;;;;;;;;;;;;;2099425;28;20375;-58
2021/12/07 01:47:57;;;;;;;;;;;;;;;;;;2098883;28;19924;-57
2021/12/07 01:59:33;;;;;;;;;;;;;;;;;;2106543;28;20010;-42
2021/12/07 02:00:33;;;;;;;;;;;;;;;;;;2100409;28;19972;-43
2021/12/07 02:01:34;;;;;;;;;;;;;;;;;;2090871;28;19925;-43
2021/12/07 02:02:35;;;;;;;;;;;;;;;;;;2090608;28;19929;-43
2021/12/07 02:03:38;;;;;;;;;;;;;;;;;;2097663;28;19940;-42
2021/12/07 02:04:39;;;;;;;;;;;;;;;;;;2107403;28;20015;-43
2021/12/07 02:05:40;;;;;;;;;;;;;;;;;;2107464;28;20284;-43
2021/12/07 02:06:40;;;;;;;;;;;;;;;;;;2097980;28;19978;-43
2021/12/07 02:07:41;;;;;;;;;;;;;;;;;;2099070;28;19947;-43
2021/12/07 02:08:42;;;;;;;;;;;;;;;;;;2098549;28;19931;-43
2021/12/07 02:09:47;;;;;;;;;;;;;;;;;;2100289;28;19960;-43
2021/12/07 02:10:48;;;;;;;;;;;;;;;;;;2107462;28;19924;-43
2021/12/07 02:11:57;;;;;;;;;;;;;;;;;;2104962;28;20631;-43
2021/12/07 02:13:03;;;;;;;;;;;;;;;;;;2099237;28;20018;-43
2021/12/07 02:14:16;;;;;;;;;;;;;;;;;;2099078;28;19967;-43
2021/12/07 02:15:17;;;;;;;;;;;;;;;;;;2098922;28;19924;-43
2021/12/07 02:16:19;;;;;;;;;;;;;;;;;;2098841;28;20293;-43
2021/12/07 02:17:22;;;;;;;;;;;;;;;;;;2098789;28;19925;-43
2021/12/07 02:18:24;;;;;;;;;;;;;;;;;;2098795;28;19959;-42
2021/12/07 02:19:24;;;;;;;;;;;;;;;;;;2099085;28;20019;-43
2021/12/07 02:20:25;;;;;;;;;;;;;;;;;;2098904;28;19925;-43
2021/12/07 02:21:26;;;;;;;;;;;;;;;;;;2098850;28;19930;-43
2021/12/07 02:22:27;;;;;;;;;;;;;;;;;;2098718;28;19928;-43
2021/12/07 02:23:28;;;;;;;;;;;;;;;;;;2099035;28;19928;-43
2021/12/07 02:24:29;;;;;;;;;;;;;;;;;;2098275;28;19924;-43
2021/12/07 02:25:32;;;;;;;;;;;;;;;;;;2107355;28;19928;-43
2021/12/07 02:26:33;;;;;;;;;;;;;;;;;;2105930;28;20019;-43
2021/12/07 02:27:33;;;;;;;;;;;;;;;;;;2100240;28;20010;-44
2021/12/07 02:28:38;;;;;;;;;;;;;;;;;;2098956;28;19931;-43
2021/12/07 02:29:39;;;;;;;;;;;;;;;;;;2096992;28;20027;-43
2021/12/07 02:30:40;;;;;;;;;;;;;;;;;;2101786;28;20403;-42
2021/12/07 02:31:41;;;;;;;;;;;;;;;;;;2107173;28;19931;-43
2021/12/07 02:32:41;;;;;;;;;;;;;;;;;;2103515;28;19924;-42
2021/12/07 02:33:42;;;;;;;;;;;;;;;;;;2099554;28;19974;-43
2021/12/07 02:34:53;;;;;;;;;;;;;;;;;;2098933;28;19979;-43
2021/12/07 02:35:54;;;;;;;;;;;;;;;;;;2099033;28;19959;-43
2021/12/07 02:36:55;;;;;;;;;;;;;;;;;;2098489;28;20312;-43
2021/12/07 02:37:56;;;;;;;;;;;;;;;;;;2098801;28;20021;-43
2021/12/07 02:38:57;;;;;;;;;;;;;;;;;;2099413;28;19938;-43
2021/12/07 02:39:58;;;;;;;;;;;;;;;;;;2098840;28;19934;-43
2021/12/07 02:40:58;;;;;;;;;;;;;;;;;;2098900;28;20026;-43
2021/12/07 02:41:59;;;;;;;;;;;;;;;;;;2097519;28;19931;-42
2021/12/07 02:43:00;;;;;;;;;;;;;;;;;;2106060;28;19924;-43
2021/12/07 02:44:01;;;;;;;;;;;;;;;;;;2104375;28;20296;-43
2021/12/07 02:45:02;;;;;;;;;;;;;;;;;;2097545;28;19925;-42
2021/12/07 02:46:03;;;;;;;;;;;;;;;;;;2106887;28;19928;-43
2021/12/07 02:47:03;;;;;;;;;;;;;;;;;;2107020;28;19924;-43
2021/12/07 02:48:04;;;;;;;;;;;;;;;;;;2099869;28;19928;-42
2021/12/07 02:49:05;;;;;;;;;;;;;;;;;;2106624;28;20028;-43
2021/12/07 02:50:06;;;;;;;;;;;;;;;;;;2107238;28;19928;-42
2021/12/07 02:51:07;;;;;;;;;;;;;;;;;;2099036;28;19932;-43
2021/12/07 02:52:07;;;;;;;;;;;;;;;;;;2098606;28;19928;-43
2021/12/07 02:53:08;;;;;;;;;;;;;;;;;;2098232;28;19985;-43
2021/12/07 02:54:09;;;;;;;;;;;;;;;;;;2099022;28;19932;-43
2021/12/07 02:55:10;;;;;;;;;;;;;;;;;;2098702;28;19932;-43
2021/12/07 02:56:11;;;;;;;;;;;;;;;;;;2098212;28;19924;-43
2021/12/07 02:57:12;;;;;;;;;;;;;;;;;;2101007;28;20027;-43
2021/12/07 02:58:12;;;;;;;;;;;;;;;;;;2107018;28;19929;-43
2021/12/07 02:59:14;;;;;;;;;;;;;;;;;;2105404;28;19924;-43
2021/12/07 03:00:18;;;;;;;;;;;;;;;;;;2097975;28;20357;-43
2021/12/07 03:01:24;;;;;;;;;;;;;;;;;;2098825;28;20015;-43
2021/12/07 03:02:25;;;;;;;;;;;;;;;;;;2097750;28;19985;-43
2021/12/07 03:03:28;;;;;;;;;;;;;;;;;;2099432;28;20058;-43
2021/12/07 03:04:35;;;;;;;;;;;;;;;;;;2098778;28;19924;-43
2021/12/07 03:05:43;;;;;;;;;;;;;;;;;;2097925;28;20046;-43
2021/12/07 03:06:53;;;;;;;;;;;;;;;;;;2097747;28;20019;-43
2021/12/07 03:08:17;;;;;;;;;;;;;;;;;;2098756;28;20019;-43
2021/12/07 03:26:39;;;;;;;;;;;;;;;;;;2098361;28;19982;-58
2021/12/07 03:27:41;;;;;;;;;;;;;;;;;;2098342;28;19924;-58
2021/12/07 03:28:41;;;;;;;;;;;;;;;;;;2097025;28;20012;-58
2021/12/07 03:29:42;;;;;;;;;;;;;;;;;;2098146;28;20360;-58
2021/12/07 03:30:43;;;;;;;;;;;;;;;;;;2098437;28;19924;-58
2021/12/07 03:31:44;;;;;;;;;;;;;;;;;;2098072;28;19993;-58
2021/12/07 03:32:45;;;;;;;;;;;;;;;;;;2098677;28;20327;-58
2021/12/07 03:33:46;;;;;;;;;;;;;;;;;;2098447;28;19978;-58
2021/12/07 03:34:46;;;;;;;;;;;;;;;;;;2097856;28;19932;-58
2021/12/07 03:35:47;;;;;;;;;;;;;;;;;;2098873;28;19928;-58
2021/12/07 03:36:48;;;;;;;;;;;;;;;;;;2098446;28;19931;-58
2021/12/07 03:37:49;;;;;;;;;;;;;;;;;;2097745;28;19924;-58
2021/12/07 03:38:49;;;;;;;;;;;;;;;;;;2098848;28;19931;-58
2021/12/07 03:39:50;;;;;;;;;;;;;;;;;;2098365;28;19924;-58
2021/12/07 03:40:51;;;;;;;;;;;;;;;;;;2097445;28;19932;-58
2021/12/07 03:41:52;;;;;;;;;;;;;;;;;;2102473;28;19973;-58
2021/12/07 03:42:53;;;;;;;;;;;;;;;;;;2106694;28;19947;-59
2021/12/07 03:43:54;;;;;;;;;;;;;;;;;;2103161;28;19924;-59
2021/12/07 03:44:54;;;;;;;;;;;;;;;;;;2099127;28;19931;-58
2021/12/07 03:45:55;;;;;;;;;;;;;;;;;;2098382;28;19925;-58
2021/12/07 03:46:56;;;;;;;;;;;;;;;;;;2097381;28;20340;-58
2021/12/07 03:47:57;;;;;;;;;;;;;;;;;;2102746;28;19974;-58
2021/12/07 03:48:57;;;;;;;;;;;;;;;;;;2106806;28;20292;-59
2021/12/07 03:49:58;;;;;;;;;;;;;;;;;;2101815;28;20351;-59
2021/12/07 03:50:59;;;;;;;;;;;;;;;;;;2103483;28;19932;-58
2021/12/07 03:52:00;;;;;;;;;;;;;;;;;;2106559;28;19970;-58
2021/12/07 03:53:01;;;;;;;;;;;;;;;;;;2101152;28;19938;-58
2021/12/07 03:54:02;;;;;;;;;;;;;;;;;;2098268;28;19929;-58
2021/12/07 03:55:03;;;;;;;;;;;;;;;;;;2098303;28;19924;-58
2021/12/07 03:56:04;;;;;;;;;;;;;;;;;;2098398;28;20376;-59
2021/12/07 03:57:06;;;;;;;;;;;;;;;;;;2097979;28;20647;-59
2021/12/07 03:58:07;;;;;;;;;;;;;;;;;;2098397;28;20023;-59
2021/12/07 03:59:08;;;;;;;;;;;;;;;;;;2098222;28;19928;-59
2021/12/07 04:00:09;;;;;;;;;;;;;;;;;;2098062;28;19925;-59
2021/12/07 04:01:11;;;;;;;;;;;;;;;;;;2097310;28;19984;-59
2021/12/07 04:02:12;;;;;;;;;;;;;;;;;;2098136;28;19950;-59
2021/12/07 04:03:14;;;;;;;;;;;;;;;;;;2089985;28;19925;-59
2021/12/07 04:04:15;;;;;;;;;;;;;;;;;;2089961;28;19947;-59
2021/12/07 04:05:18;;;;;;;;;;;;;;;;;;2098423;28;20009;-59
2021/12/07 04:06:19;;;;;;;;;;;;;;;;;;2106569;28;19974;-59
2021/12/07 04:07:19;;;;;;;;;;;;;;;;;;2105875;28;19928;-59
2021/12/07 04:08:20;;;;;;;;;;;;;;;;;;2099051;28;19932;-59
2021/12/07 04:09:21;;;;;;;;;;;;;;;;;;2106678;28;20368;-58
2021/12/07 04:10:22;;;;;;;;;;;;;;;;;;2105128;28;20305;-59
2021/12/07 04:11:23;;;;;;;;;;;;;;;;;;2098645;28;19968;-59
2021/12/07 04:12:24;;;;;;;;;;;;;;;;;;2098039;28;19932;-59
2021/12/07 04:13:24;;;;;;;;;;;;;;;;;;2097342;28;19931;-59
2021/12/07 04:14:25;;;;;;;;;;;;;;;;;;2100494;28;19928;-58
2021/12/07 04:15:26;;;;;;;;;;;;;;;;;;2106571;28;19924;-59
2021/12/07 04:16:27;;;;;;;;;;;;;;;;;;2103903;28;19928;-58
2021/12/07 04:17:28;;;;;;;;;;;;;;;;;;2098504;28;20269;-58
2021/12/07 04:18:29;;;;;;;;;;;;;;;;;;2098272;28;19924;-59
2021/12/07 04:19:30;;;;;;;;;;;;;;;;;;2097205;28;20011;-59
2021/12/07 04:20:31;;;;;;;;;;;;;;;;;;2102225;28;20269;-58
2021/12/07 04:21:31;;;;;;;;;;;;;;;;;;2106437;28;20010;-58
2021/12/07 04:22:32;;;;;;;;;;;;;;;;;;2102256;28;19924;-58
2021/12/07 04:23:33;;;;;;;;;;;;;;;;;;2098946;28;20300;-58
2021/12/07 04:24:35;;;;;;;;;;;;;;;;;;2098144;28;19934;-58
2021/12/07 04:25:36;;;;;;;;;;;;;;;;;;2097255;28;19931;-43
2021/12/07 04:26:38;;;;;;;;;;;;;;;;;;2103494;28;19924;-43
2021/12/07 04:27:39;;;;;;;;;;;;;;;;;;2105860;28;20395;-43
2021/12/07 04:28:40;;;;;;;;;;;;;;;;;;2100015;28;20054;-43
2021/12/07 04:29:41;;;;;;;;;;;;;;;;;;2103746;28;19928;-43
2021/12/07 04:30:42;;;;;;;;;;;;;;;;;;2106402;28;19924;-43
2021/12/07 04:31:42;;;;;;;;;;;;;;;;;;2100575;28;19924;-43
2021/12/07 04:32:43;;;;;;;;;;;;;;;;;;2106319;28;20436;-43
2021/12/07 04:33:44;;;;;;;;;;;;;;;;;;2106516;28;20380;-43
2021/12/07 04:34:45;;;;;;;;;;;;;;;;;;2098285;28;20300;-43
2021/12/07 04:35:46;;;;;;;;;;;;;;;;;;2098131;28;19924;-43
2021/12/07 04:36:47;;;;;;;;;;;;;;;;;;2097351;28;20019;-43
2021/12/07 04:37:47;;;;;;;;;;;;;;;;;;2098103;28;19925;-43
2021/12/07 04:38:48;;;;;;;;;;;;;;;;;;2098049;28;19928;-43
2021/12/07 04:39:49;;;;;;;;;;;;;;;;;;2097480;28;19928;-43
2021/12/07 04:40:50;;;;;;;;;;;;;;;;;;2098157;28;19924;-43
2021/12/07 04:41:52;;;;;;;;;;;;;;;;;;2097891;28;19924;-43
2021/12/07 04:42:53;;;;;;;;;;;;;;;;;;2097280;28;20066;-43
2021/12/07 04:43:53;;;;;;;;;;;;;;;;;;2100737;28;20323;-43
2021/12/07 04:44:58;;;;;;;;;;;;;;;;;;2106398;28;19935;-43
2021/12/07 04:46:08;;;;;;;;;;;;;;;;;;2102421;28;20015;-43
2021/12/07 04:47:16;;;;;;;;;;;;;;;;;;2097673;28;20416;-43
2021/12/07 04:48:45;;;;;;;;;;;;;;;;;;2098061;28;19964;-43
2021/12/07 04:57:45;;;;;;;;;;;;;;;;;;2090861;28;20457;-43
2021/12/07 04:58:45;;;;;;;;;;;;;;;;;;2101139;28;19931;-43
2021/12/07 04:59:46;;;;;;;;;;;;;;;;;;2106322;28;19955;-43
2021/12/07 05:00:48;;;;;;;;;;;;;;;;;;2102526;28;19936;-43
2021/12/07 05:01:49;;;;;;;;;;;;;;;;;;2098627;28;20075;-43
2021/12/07 05:02:54;;;;;;;;;;;;;;;;;;2097935;28;19924;-60
2021/12/07 05:03:58;;;;;;;;;;;;;;;;;;2097057;28;19982;-59
2021/12/07 05:04:59;;;;;;;;;;;;;;;;;;2097634;28;20426;-59
2021/12/07 05:06:00;;;;;;;;;;;;;;;;;;2097975;28;19924;-59
2021/12/07 05:07:07;;;;;;;;;;;;;;;;;;2096652;28;19932;-59
2021/12/07 05:08:11;;;;;;;;;;;;;;;;;;2105547;28;20019;-59
2021/12/07 05:09:30;;;;;;;;;;;;;;;;;;2106164;28;20018;-59
2021/12/07 05:10:33;;;;;;;;;;;;;;;;;;2097297;28;20030;-59
2021/12/07 05:11:48;;;;;;;;;;;;;;;;;;2097817;28;20007;-60
2021/12/07 05:13:20;;;;;;;;;;;;;;;;;;2096508;28;20463;-60
2021/12/07 05:14:20;;;;;;;;;;;;;;;;;;2089404;28;20017;-60
2021/12/07 05:15:28;;;;;;;;;;;;;;;;;;2089730;28;20044;-59
2021/12/07 05:16:47;;;;;;;;;;;;;;;;;;2097561;28;19975;-59
2021/12/07 05:18:05;;;;;;;;;;;;;;;;;;2097666;28;20402;-58
2021/12/07 05:23:52;;;;;;;;;;;;;;;;;;2097737;28;19978;-59
2021/12/07 05:24:35;;;;;;;;;;;;;;;;;;2100336;28;19924;-44
2021/12/07 05:26:06;;;;;;;;;;;;;;;;;;2104993;28;20018;-44
2021/12/07 05:37:51;;;;;;;;;;;;;;;;;;2089324;28;20011;-43
2021/12/07 05:38:52;;;;;;;;;;;;;;;;;;2090019;28;20395;-43
2021/12/07 05:39:53;;;;;;;;;;;;;;;;;;2098009;28;19947;-43
2021/12/07 05:40:54;;;;;;;;;;;;;;;;;;2097831;28;19983;-43
2021/12/07 05:41:54;;;;;;;;;;;;;;;;;;2097122;28;20289;-43
2021/12/07 05:42:55;;;;;;;;;;;;;;;;;;2101105;28;19925;-43
2021/12/07 05:43:56;;;;;;;;;;;;;;;;;;2106393;28;19924;-43
2021/12/07 05:44:57;;;;;;;;;;;;;;;;;;2103013;28;19928;-44
2021/12/07 05:45:58;;;;;;;;;;;;;;;;;;2100752;28;19939;-44
2021/12/07 05:46:58;;;;;;;;;;;;;;;;;;2105973;28;19933;-43
2021/12/07 05:47:59;;;;;;;;;;;;;;;;;;2102267;28;19924;-43
2021/12/07 05:49:00;;;;;;;;;;;;;;;;;;2098435;28;19928;-59
2021/12/07 05:50:01;;;;;;;;;;;;;;;;;;2097727;28;20361;-59
2021/12/07 05:51:02;;;;;;;;;;;;;;;;;;2096838;28;19925;-59
2021/12/07 05:52:03;;;;;;;;;;;;;;;;;;2101343;28;19927;-59
2021/12/07 05:53:04;;;;;;;;;;;;;;;;;;2106149;28;20292;-59
2021/12/07 05:54:04;;;;;;;;;;;;;;;;;;2102001;28;19928;-59
2021/12/07 05:55:05;;;;;;;;;;;;;;;;;;2103100;28;19931;-59
2021/12/07 05:56:06;;;;;;;;;;;;;;;;;;2105959;28;20453;-59
2021/12/07 05:57:07;;;;;;;;;;;;;;;;;;2100385;28;20411;-59
2021/12/07 05:58:08;;;;;;;;;;;;;;;;;;2098295;28;19928;-59
2021/12/07 05:59:09;;;;;;;;;;;;;;;;;;2097789;28;20397;-59
2021/12/07 06:00:09;;;;;;;;;;;;;;;;;;2097260;28;19932;-59
2021/12/07 06:01:10;;;;;;;;;;;;;;;;;;2097824;28;20384;-59
2021/12/07 06:02:11;;;;;;;;;;;;;;;;;;2097851;28;20392;-44
2021/12/07 06:03:12;;;;;;;;;;;;;;;;;;2097346;28;20381;-43
2021/12/07 06:04:13;;;;;;;;;;;;;;;;;;2097403;28;20420;-44
2021/12/07 06:05:14;;;;;;;;;;;;;;;;;;2097588;28;19982;-43
2021/12/07 06:06:14;;;;;;;;;;;;;;;;;;2096417;28;19924;-43
2021/12/07 06:07:15;;;;;;;;;;;;;;;;;;2105581;28;20018;-44
2021/12/07 06:08:16;;;;;;;;;;;;;;;;;;2106064;28;19934;-43
2021/12/07 06:09:17;;;;;;;;;;;;;;;;;;2097611;28;19928;-44
2021/12/07 06:10:18;;;;;;;;;;;;;;;;;;2105870;28;19976;-41
2021/12/07 06:11:21;;;;;;;;;;;;;;;;;;2106003;28;19931;-42
2021/12/07 06:12:22;;;;;;;;;;;;;;;;;;2097232;28;20011;-43
2021/12/07 06:13:23;;;;;;;;;;;;;;;;;;2097510;28;19924;-44
2021/12/07 06:14:30;;;;;;;;;;;;;;;;;;2097039;28;19990;-42
2021/12/07 06:15:34;;;;;;;;;;;;;;;;;;2098923;28;19978;-59
2021/12/07 06:16:34;;;;;;;;;;;;;;;;;;2105856;28;19978;-58
2021/12/07 06:17:35;;;;;;;;;;;;;;;;;;2102851;28;20376;-57
2021/12/07 06:18:36;;;;;;;;;;;;;;;;;;2097790;28;19974;-57
2021/12/07 06:19:37;;;;;;;;;;;;;;;;;;2097496;28;19928;-57
2021/12/07 06:20:40;;;;;;;;;;;;;;;;;;2096630;28;19925;-57
2021/12/07 06:21:44;;;;;;;;;;;;;;;;;;2098535;28;19924;-59
2021/12/07 06:22:45;;;;;;;;;;;;;;;;;;2097439;28;19946;-58
2021/12/07 06:23:46;;;;;;;;;;;;;;;;;;2096474;28;19951;-59
2021/12/07 06:24:47;;;;;;;;;;;;;;;;;;2099517;28;19933;-59
2021/12/07 06:25:48;;;;;;;;;;;;;;;;;;2098846;28;20373;-59
2021/12/07 06:26:49;;;;;;;;;;;;;;;;;;2097930;28;20015;-58
2021/12/07 06:27:49;;;;;;;;;;;;;;;;;;2105079;28;19924;-58
2021/12/07 06:28:51;;;;;;;;;;;;;;;;;;2104244;28;19931;-58
2021/12/07 06:29:51;;;;;;;;;;;;;;;;;;2097781;28;20011;-58
2021/12/07 06:30:52;;;;;;;;;;;;;;;;;;2105853;28;19924;-57
2021/12/07 06:31:53;;;;;;;;;;;;;;;;;;2107209;28;19924;-58
2021/12/07 06:32:54;;;;;;;;;;;;;;;;;;2101019;28;20379;-58
2021/12/07 06:33:55;;;;;;;;;;;;;;;;;;2098596;28;20395;-59
2021/12/07 06:34:55;;;;;;;;;;;;;;;;;;2098811;28;20403;-59
2021/12/07 06:35:57;;;;;;;;;;;;;;;;;;2098859;28;20329;-59
2021/12/07 06:36:58;;;;;;;;;;;;;;;;;;2098682;28;19932;-59
2021/12/07 06:37:59;;;;;;;;;;;;;;;;;;2098923;28;19924;-59
2021/12/07 06:39:00;;;;;;;;;;;;;;;;;;2098527;28;20284;-59
2021/12/07 06:40:00;;;;;;;;;;;;;;;;;;2098794;28;19950;-59
2021/12/07 06:41:01;;;;;;;;;;;;;;;;;;2098835;28;19928;-59
2021/12/07 06:42:02;;;;;;;;;;;;;;;;;;2098477;28;19928;-57
2021/12/07 06:43:03;;;;;;;;;;;;;;;;;;2098626;28;20300;-59
2021/12/07 06:44:04;;;;;;;;;;;;;;;;;;2098229;28;20382;-59
2021/12/07 06:45:05;;;;;;;;;;;;;;;;;;2099203;28;19935;-59
2021/12/07 06:46:06;;;;;;;;;;;;;;;;;;2098732;28;20469;-59
2021/12/07 06:47:06;;;;;;;;;;;;;;;;;;2098169;28;19935;-59
2021/12/07 06:48:07;;;;;;;;;;;;;;;;;;2100485;28;19939;-58
2021/12/07 06:49:08;;;;;;;;;;;;;;;;;;2107221;28;20332;-59
2021/12/07 06:50:09;;;;;;;;;;;;;;;;;;2104824;28;19947;-59
2021/12/07 06:51:09;;;;;;;;;;;;;;;;;;2101230;28;19939;-59
2021/12/07 06:52:10;;;;;;;;;;;;;;;;;;2107008;28;19931;-57
2021/12/07 06:53:11;;;;;;;;;;;;;;;;;;2104193;28;19925;-59
2021/12/07 06:54:12;;;;;;;;;;;;;;;;;;2099081;28;19929;-57
2021/12/07 06:55:13;;;;;;;;;;;;;;;;;;2098781;28;19951;-59
2021/12/07 06:56:14;;;;;;;;;;;;;;;;;;2097691;28;19928;-59
2021/12/07 06:57:14;;;;;;;;;;;;;;;;;;2099257;28;19974;-58
2021/12/07 06:58:15;;;;;;;;;;;;;;;;;;2098807;28;19931;-59
2021/12/07 06:59:16;;;;;;;;;;;;;;;;;;2097718;28;19924;-59
2021/12/07 07:00:17;;;;;;;;;;;;;;;;;;2099480;28;19929;-59
2021/12/07 07:01:18;;;;;;;;;;;;;;;;;;2098574;28;19978;-59
2021/12/07 07:02:19;;;;;;;;;;;;;;;;;;2097556;28;20089;-59
2021/12/07 07:03:20;;;;;;;;;;;;;;;;;;2103994;28;20282;-59
2021/12/07 07:04:21;;;;;;;;;;;;;;;;;;2106951;28;19924;-58
2021/12/07 07:05:22;;;;;;;;;;;;;;;;;;2101208;28;19931;-58
2021/12/07 07:06:22;;;;;;;;;;;;;;;;;;2099227;28;19925;-58
2021/12/07 07:07:24;;;;;;;;;;;;;;;;;;2098674;28;20376;-59
2021/12/07 07:08:25;;;;;;;;;;;;;;;;;;2097129;28;20320;-58
2021/12/07 07:09:25;;;;;;;;;;;;;;;;;;2105613;28;19928;-58
2021/12/07 07:10:26;;;;;;;;;;;;;;;;;;2106906;28;20296;-59
2021/12/07 07:11:27;;;;;;;;;;;;;;;;;;2100676;28;19931;-59
2021/12/07 07:12:28;;;;;;;;;;;;;;;;;;2098420;28;19924;-58
2021/12/07 07:13:29;;;;;;;;;;;;;;;;;;2098673;28;19924;-59
2021/12/07 07:14:30;;;;;;;;;;;;;;;;;;2098318;28;19928;-58
2021/12/07 07:15:31;;;;;;;;;;;;;;;;;;2098584;28;19931;-59
2021/12/07 07:16:32;;;;;;;;;;;;;;;;;;2098479;28;19932;-58
2021/12/07 07:17:33;;;;;;;;;;;;;;;;;;2098693;28;19948;-59
2021/12/07 07:18:34;;;;;;;;;;;;;;;;;;2106974;28;19924;-59
2021/12/07 07:19:35;;;;;;;;;;;;;;;;;;2106847;28;20375;-59
2021/12/07 07:20:36;;;;;;;;;;;;;;;;;;2098509;28;19925;-59
2021/12/07 07:21:36;;;;;;;;;;;;;;;;;;2098498;28;19980;-59
2021/12/07 07:22:37;;;;;;;;;;;;;;;;;;2097944;28;19935;-59
2021/12/07 07:23:38;;;;;;;;;;;;;;;;;;2098695;28;20174;-58
2021/12/07 07:24:41;;;;;;;;;;;;;;;;;;2098562;28;19939;-58
2021/12/07 07:25:41;;;;;;;;;;;;;;;;;;2097722;28;20024;-59
2021/12/07 07:26:42;;;;;;;;;;;;;;;;;;2098907;28;19931;-59
2021/12/07 07:27:43;;;;;;;;;;;;;;;;;;2098417;28;19928;-59
2021/12/07 07:28:44;;;;;;;;;;;;;;;;;;2096306;28;19931;-59
2021/12/07 07:29:45;;;;;;;;;;;;;;;;;;2101258;28;20337;-59
2021/12/07 07:30:46;;;;;;;;;;;;;;;;;;2106788;28;19936;-58
2021/12/07 07:31:46;;;;;;;;;;;;;;;;;;2103862;28;20288;-59
2021/12/07 07:32:47;;;;;;;;;;;;;;;;;;2099110;28;19924;-59
2021/12/07 07:33:48;;;;;;;;;;;;;;;;;;2098541;28;19929;-59
2021/12/07 07:34:49;;;;;;;;;;;;;;;;;;2097370;28;19984;-58
2021/12/07 07:35:51;;;;;;;;;;;;;;;;;;2102654;28;19924;-59
2021/12/07 07:36:52;;;;;;;;;;;;;;;;;;2106855;28;20007;-58
2021/12/07 07:37:53;;;;;;;;;;;;;;;;;;2102006;28;19979;-59
2021/12/07 07:38:54;;;;;;;;;;;;;;;;;;2098799;28;19931;-58
2021/12/07 07:39:55;;;;;;;;;;;;;;;;;;2098345;28;20006;-58
2021/12/07 07:40:56;;;;;;;;;;;;;;;;;;2097586;28;19932;-59
2021/12/07 07:41:56;;;;;;;;;;;;;;;;;;2099031;28;19924;-59
2021/12/07 07:42:57;;;;;;;;;;;;;;;;;;2098442;28;19936;-59
2021/12/07 07:43:58;;;;;;;;;;;;;;;;;;2097391;28;19929;-59
2021/12/07 07:44:59;;;;;;;;;;;;;;;;;;2104825;28;19928;-59
2021/12/07 07:45:59;;;;;;;;;;;;;;;;;;2106684;28;19928;-60
2021/12/07 07:47:00;;;;;;;;;;;;;;;;;;2100768;28;19931;-58
2021/12/07 07:48:02;;;;;;;;;;;;;;;;;;2097311;28;20262;-59
2021/12/07 07:49:04;;;;;;;;;;;;;;;;;;2098279;28;20086;-59
2021/12/07 07:50:05;;;;;;;;;;;;;;;;;;2098333;28;20437;-59
2021/12/07 07:51:06;;;;;;;;;;;;;;;;;;2098270;28;20033;-59
2021/12/07 07:52:07;;;;;;;;;;;;;;;;;;2098398;28;19954;-59
2021/12/07 07:53:07;;;;;;;;;;;;;;;;;;2097290;28;19929;-59
2021/12/07 07:54:08;;;;;;;;;;;;;;;;;;2106732;28;19928;-59
2021/12/07 07:55:09;;;;;;;;;;;;;;;;;;2106641;28;19924;-58
2021/12/07 07:56:10;;;;;;;;;;;;;;;;;;2098721;28;19924;-43
2021/12/07 07:57:11;;;;;;;;;;;;;;;;;;2098414;28;19924;-43
2021/12/07 07:58:12;;;;;;;;;;;;;;;;;;2097846;28;19931;-43
2021/12/07 07:59:13;;;;;;;;;;;;;;;;;;2098599;28;20304;-43
2021/12/07 08:00:15;;;;;;;;;;;;;;;;;;2098213;28;19925;-43
2021/12/07 08:01:16;;;;;;;;;;;;;;;;;;2097944;28;20019;-43
2021/12/07 08:02:17;;;;;;;;;;;;;;;;;;2098335;28;20385;-43
2021/12/07 08:03:18;;;;;;;;;;;;;;;;;;2098220;28;19928;-43
2021/12/07 08:04:19;;;;;;;;;;;;;;;;;;2097551;28;19924;-43
2021/12/07 08:05:19;;;;;;;;;;;;;;;;;;2098733;28;20362;-43
2021/12/07 08:06:20;;;;;;;;;;;;;;;;;;2098278;28;19925;-43
2021/12/07 08:07:21;;;;;;;;;;;;;;;;;;2097674;28;19924;-43
2021/12/07 08:08:22;;;;;;;;;;;;;;;;;;2098638;28;20392;-43
2021/12/07 08:09:23;;;;;;;;;;;;;;;;;;2098183;28;19925;-43
2021/12/07 08:10:28;;;;;;;;;;;;;;;;;;2097306;28;19932;-43
2021/12/07 08:11:29;;;;;;;;;;;;;;;;;;2102828;28;20026;-43
2021/12/07 08:12:29;;;;;;;;;;;;;;;;;;2106665;28;20376;-43
2021/12/07 08:13:31;;;;;;;;;;;;;;;;;;2102601;28;19932;-43
2021/12/07 08:14:33;;;;;;;;;;;;;;;;;;2103770;28;19923;-43
2021/12/07 08:15:36;;;;;;;;;;;;;;;;;;2106484;28;19924;-43